Time;durP1;ratioP1;P1;durP2;ratioP2;P2;SDS_P1;SDS_P2;PMS_P1;PMS_P2;Temp;Humidity;BMP_temperature;BMP_pressure;BME280_temperature;BME280_humidity;BME280_pressure;Samples;Min_cycle;Max_cycle;Signal;HPM_P1;HPM_P2
2021/10/09 00:02:02;;;;;;;25.27;8.40;;;6.50;99.90;;;4.89;100.00;103790.25;5021805;28;20072;-76
2021/10/09 00:04:28;;;;;;;30.50;8.18;;;6.50;99.90;;;4.84;100.00;103794.47;4981422;28;20063;-76
2021/10/09 00:06:54;;;;;;;17.60;8.75;;;6.40;99.90;;;4.82;100.00;103792.66;5006817;28;20063;-76
2021/10/09 00:09:20;;;;;;;20.50;8.60;;;6.40;99.90;;;4.67;100.00;103783.56;5030726;28;20061;-76
2021/10/09 00:11:46;;;;;;;22.55;7.82;;;6.30;99.90;;;4.65;100.00;103785.25;5039999;28;21223;-76
2021/10/09 00:14:14;;;;;;;23.58;8.55;;;6.20;99.90;;;4.56;100.00;103781.50;5037644;28;20408;-76
2021/10/09 00:16:45;;;;;;;29.90;8.77;;;6.20;99.90;;;4.49;100.00;103777.84;5007571;28;20054;-76
2021/10/09 00:19:14;;;;;;;22.60;8.57;;;6.10;99.90;;;4.41;100.00;103775.03;5027410;28;20061;-76
2021/10/09 00:21:46;;;;;;;25.08;9.43;;;6.00;99.90;;;4.30;100.00;103772.13;5045457;28;20073;-77
2021/10/09 00:24:17;;;;;;;21.63;9.55;;;5.90;99.90;;;4.26;100.00;103780.72;5026262;28;20081;-76
2021/10/09 00:26:45;;;;;;;29.25;9.13;;;5.80;99.90;;;4.13;100.00;103777.72;5045412;28;20058;-76
2021/10/09 00:29:11;;;;;;;25.05;9.75;;;5.70;99.90;;;4.00;100.00;103771.25;5023819;28;20118;-76
2021/10/09 00:31:38;;;;;;;22.33;9.43;;;5.60;99.90;;;3.94;100.00;103771.94;5023779;28;20520;-76
2021/10/09 00:34:04;;;;;;;26.02;9.27;;;5.60;99.90;;;3.96;100.00;103780.69;5027323;28;20484;-76
2021/10/09 00:36:30;;;;;;;30.13;9.77;;;5.60;99.90;;;3.90;100.00;103786.59;5038314;28;20053;-76
2021/10/09 00:38:57;;;;;;;25.98;9.50;;;5.60;99.90;;;3.90;100.00;103797.03;5024073;28;20596;-76
2021/10/09 00:41:23;;;;;;;32.10;11.00;;;5.60;99.90;;;3.91;100.00;103795.31;5012218;28;20062;-76
2021/10/09 00:43:53;;;;;;;23.13;9.50;;;5.50;99.90;;;3.86;100.00;103784.72;5046547;28;20148;-76
2021/10/09 00:46:19;;;;;;;30.70;9.45;;;5.50;99.90;;;3.85;100.00;103782.97;5004198;28;20072;-76
2021/10/09 00:48:46;;;;;;;35.03;10.57;;;5.40;99.90;;;3.85;100.00;103787.31;5005437;28;20063;-76
2021/10/09 00:51:12;;;;;;;26.15;9.75;;;5.40;99.90;;;3.75;100.00;103775.72;5017156;28;20059;-77
2021/10/09 00:53:46;;;;;;;29.88;10.10;;;5.30;99.90;;;3.67;100.00;103765.06;5033267;28;20415;-77
2021/10/09 00:56:15;;;;;;;28.70;10.65;;;5.30;99.90;;;3.69;100.00;103775.50;5011966;28;20061;-77
2021/10/09 00:58:45;;;;;;;24.35;9.65;;;5.30;99.90;;;3.64;100.00;103767.56;5040093;28;20067;-77
2021/10/09 01:01:11;;;;;;;32.70;11.20;;;5.20;99.90;;;3.60;100.00;103772.63;4979525;28;20069;-77
2021/10/09 01:03:37;;;;;;;41.00;10.70;;;5.20;99.90;;;3.61;100.00;103779.63;4994976;28;20060;-77
2021/10/09 01:06:03;;;;;;;28.88;10.50;;;5.20;99.90;;;3.62;100.00;103789.19;4985502;28;20444;-77
2021/10/09 01:08:29;;;;;;;25.10;10.45;;;5.20;99.90;;;3.56;100.00;103770.78;4984950;28;20061;-77
2021/10/09 01:10:55;;;;;;;34.10;10.90;;;5.20;99.90;;;3.48;100.00;103774.03;5013433;28;20054;-77
2021/10/09 01:13:23;;;;;;;30.30;10.57;;;5.10;99.90;;;3.46;100.00;103782.63;5038365;28;20557;-77
2021/10/09 01:15:52;;;;;;;29.63;10.68;;;5.10;99.90;;;3.47;100.00;103782.66;5004838;28;20530;-77
2021/10/09 01:18:18;;;;;;;28.75;10.48;;;5.10;99.90;;;3.39;100.00;103771.13;5012989;28;20621;-77
2021/10/09 01:20:54;;;;;;;29.00;10.93;;;5.00;99.90;;;3.42;100.00;103770.34;5003924;28;20446;-77
2021/10/09 01:23:22;;;;;;;23.65;9.82;;;5.00;99.90;;;3.33;100.00;103765.72;5030289;28;20490;-77
2021/10/09 01:25:50;;;;;;;26.08;9.68;;;4.90;99.90;;;3.19;100.00;103754.84;5040621;28;20517;-77
2021/10/09 01:28:20;;;;;;;24.15;10.32;;;4.80;99.90;;;3.12;100.00;103754.59;5035442;28;20502;-77
2021/10/09 01:30:47;;;;;;;28.38;9.43;;;4.80;99.90;;;3.06;100.00;103758.75;5005787;28;20142;-77
2021/10/09 01:33:14;;;;;;;30.95;10.23;;;4.70;99.90;;;3.01;100.00;103759.47;5023034;28;20067;-77
2021/10/09 01:35:56;;;;;;;32.97;9.40;;;4.70;99.90;;;3.01;100.00;103762.94;5054309;28;20096;-77
2021/10/09 01:38:25;;;;;;;21.55;9.63;;;4.60;99.90;;;2.93;100.00;103743.56;4987000;28;20513;-77
2021/10/09 01:40:55;;;;;;;24.85;9.95;;;4.60;99.90;;;2.89;100.00;103731.28;4995070;28;20069;-77
2021/10/09 01:43:24;;;;;;;27.35;9.75;;;4.60;99.90;;;2.94;100.00;103736.63;5018099;28;20078;-77
2021/10/09 01:45:50;;;;;;;24.77;10.63;;;4.60;99.90;;;2.99;100.00;103696.06;5011667;28;20120;-77
2021/10/09 01:48:17;;;;;;;29.25;10.00;;;4.70;99.90;;;3.00;100.00;103734.25;5009934;28;20061;-77
2021/10/09 01:50:47;;;;;;;37.35;9.73;;;4.70;99.90;;;2.98;100.00;103726.41;5010498;28;20057;-77
2021/10/09 01:53:13;;;;;;;31.83;9.25;;;4.70;99.90;;;2.97;100.00;103724.63;5020251;28;20514;-77
2021/10/09 01:55:41;;;;;;;29.65;11.60;;;4.70;99.90;;;3.02;100.00;103725.69;5017598;28;20066;-77
2021/10/09 01:58:07;;;;;;;19.95;8.77;;;4.70;99.90;;;3.04;100.00;103721.38;4987811;28;20060;-77
2021/10/09 02:00:35;;;;;;;24.40;10.38;;;4.70;99.90;;;3.07;100.00;103718.88;5024057;28;20064;-77
2021/10/09 02:03:06;;;;;;;35.08;10.70;;;4.70;99.90;;;3.11;100.00;103711.16;5038072;28;20074;-77
2021/10/09 02:05:36;;;;;;;30.42;10.38;;;4.80;99.90;;;3.16;100.00;103712.22;5034539;28;20063;-77
2021/10/09 02:08:04;;;;;;;25.50;10.80;;;4.80;99.90;;;3.08;100.00;103694.59;5005397;28;20059;-77
2021/10/09 02:10:31;;;;;;;27.55;10.35;;;4.70;99.90;;;3.03;100.00;103693.59;5014244;28;20090;-77
2021/10/09 02:13:03;;;;;;;32.20;9.68;;;4.70;99.90;;;2.99;100.00;103688.25;5028575;28;20100;-77
2021/10/09 02:15:36;;;;;;;29.00;10.10;;;4.70;99.90;;;3.02;100.00;103694.44;5040198;28;20126;-77
2021/10/09 02:26:09;;;;;;;33.85;9.82;;;4.60;99.90;;;2.97;100.00;103690.78;5037933;28;20060;-77
2021/10/09 02:28:38;;;;;;;29.73;9.70;;;4.60;99.90;;;2.88;100.00;103673.16;5026789;28;20128;-77
2021/10/09 02:31:04;;;;;;;31.25;10.63;;;4.60;99.90;;;2.90;100.00;103685.34;5001700;28;20127;-77
2021/10/09 02:33:30;;;;;;;25.10;10.27;;;4.60;99.90;;;2.90;100.00;103690.56;5020644;28;26415;-77
2021/10/09 02:35:56;;;;;;;23.15;9.98;;;4.60;99.90;;;2.93;100.00;103696.72;5018071;28;21475;-77
2021/10/09 02:38:22;;;;;;;24.38;10.40;;;4.60;99.90;;;2.98;100.00;103713.41;5036003;28;20078;-77
2021/10/09 02:40:48;;;;;;;27.30;10.10;;;4.70;99.90;;;3.05;100.00;103717.97;5055053;28;20147;-77
2021/10/09 02:43:15;;;;;;;29.38;9.80;;;4.70;99.90;;;3.01;100.00;103713.47;5030894;28;20327;-77
2021/10/09 02:45:41;;;;;;;41.97;11.52;;;4.70;99.90;;;3.03;100.00;103714.41;5022752;28;20096;-77
2021/10/09 02:48:09;;;;;;;22.17;10.65;;;4.70;99.90;;;3.00;100.00;103711.72;5031142;28;20063;-78
2021/10/09 02:50:35;;;;;;;31.67;11.60;;;4.70;99.90;;;3.16;100.00;103728.72;4991114;28;20452;-77
2021/10/09 02:53:02;;;;;;;27.48;10.32;;;4.80;99.90;;;3.24;100.00;103732.47;5012318;28;20230;-76
2021/10/09 02:55:28;;;;;;;26.33;10.50;;;4.90;99.90;;;3.29;100.00;103724.78;5039848;28;20084;-77
2021/10/09 02:57:54;;;;;;;28.08;12.30;;;4.90;99.90;;;3.23;100.00;103711.56;5026495;28;20183;-77
2021/10/09 03:00:24;;;;;;;28.58;10.77;;;4.80;99.90;;;3.22;100.00;103699.41;5021977;28;20073;-77
2021/10/09 03:02:50;;;;;;;28.73;11.30;;;2.90;99.90;;;3.15;100.00;103689.59;5039979;28;20095;-76
2021/10/09 03:05:18;;;;;;;28.05;10.38;;;4.70;99.90;;;3.14;100.00;103690.44;5003898;28;20563;-77
2021/10/09 03:07:44;;;;;;;32.67;10.40;;;4.80;99.90;;;3.08;100.00;103692.00;5022623;28;20065;-77
2021/10/09 03:10:11;;;;;;;36.15;11.15;;;4.80;99.90;;;3.14;100.00;103703.47;5007072;28;20054;-77
2021/10/09 03:12:38;;;;;;;30.90;10.82;;;4.80;99.90;;;3.19;100.00;103701.88;5033801;28;20079;-77
2021/10/09 03:15:07;;;;;;;33.40;12.18;;;4.80;99.90;;;3.10;100.00;103693.78;5021784;28;20064;-77
2021/10/09 03:17:33;;;;;;;33.40;10.18;;;4.80;99.90;;;3.10;100.00;103693.78;5013615;28;20059;-77
2021/10/09 03:19:59;;;;;;;33.67;11.15;;;4.70;99.90;;;3.03;100.00;103692.72;5011341;28;20685;-77
2021/10/09 03:22:26;;;;;;;26.95;11.13;;;4.70;99.90;;;2.97;100.00;103690.78;5001416;28;20648;-77
2021/10/09 03:24:54;;;;;;;28.95;10.35;;;4.60;99.90;;;2.90;100.00;103682.75;5034020;28;20075;-77
2021/10/09 03:27:20;;;;;;;28.25;10.90;;;4.60;99.90;;;2.90;100.00;103691.44;5004337;28;20518;-77
2021/10/09 03:29:46;;;;;;;19.52;9.80;;;4.60;99.90;;;2.85;100.00;103687.78;5026443;28;20067;-77
2021/10/09 03:32:12;;;;;;;25.67;9.70;;;4.50;99.90;;;2.72;100.00;103683.00;5036228;28;20055;-77
2021/10/09 03:34:38;;;;;;;20.73;9.60;;;4.40;99.90;;;2.58;100.00;103678.22;5034918;28;20068;-77
2021/10/09 03:37:06;;;;;;;28.55;11.65;;;4.30;99.90;;;2.49;100.00;103669.25;5035499;28;20062;-77
2021/10/09 03:39:36;;;;;;;25.38;9.85;;;4.10;99.90;;;2.36;100.00;103662.72;5014634;28;20081;-77
2021/10/09 03:42:10;;;;;;;34.15;10.38;;;4.00;99.90;;;2.27;100.00;103658.09;4998803;28;20150;-77
2021/10/09 03:44:43;;;;;;;26.23;9.75;;;4.00;99.90;;;2.16;100.00;103657.72;5001023;28;20065;-78
2021/10/09 03:49:59;;;;;;;24.55;10.18;;;3.70;99.90;;;1.97;100.00;103665.69;4984495;28;20065;-77
2021/10/09 03:52:41;;;;;;;33.75;11.13;;;3.70;99.90;;;1.98;100.00;103683.91;4978981;28;20053;-77
2021/10/09 03:55:15;;;;;;;33.13;10.98;;;3.80;99.90;;;2.02;100.00;103691.00;5041214;28;20064;-77
2021/10/09 03:57:43;;;;;;;26.20;9.45;;;3.80;99.90;;;2.09;100.00;103723.28;5012092;28;20068;-77
2021/10/09 04:00:13;;;;;;;30.98;11.05;;;3.80;99.90;;;2.13;100.00;103730.38;5032357;28;20070;-77
2021/10/09 04:02:39;;;;;;;28.15;11.35;;;3.90;99.90;;;2.20;100.00;103747.09;5032757;28;20081;-77
2021/10/09 04:05:06;;;;;;;25.55;10.90;;;4.00;99.90;;;2.23;100.00;103752.41;5032612;28;20374;-77
2021/10/09 04:07:35;;;;;;;36.63;12.02;;;4.00;99.90;;;2.27;100.00;103764.69;5013449;28;20475;-77
2021/10/09 04:10:04;;;;;;;25.88;10.73;;;4.00;99.90;;;2.22;100.00;103767.09;4992263;28;20073;-77
2021/10/09 04:12:30;;;;;;;38.25;11.25;;;3.90;99.90;;;2.19;100.00;103769.59;5018109;28;24381;-77
2021/10/09 04:14:56;;;;;;;27.45;11.57;;;3.90;99.90;;;2.22;100.00;103774.03;5014202;28;20418;-77
2021/10/09 04:17:23;;;;;;;27.30;11.40;;;3.90;99.90;;;2.22;100.00;103785.31;5025301;28;20417;-77
2021/10/09 04:19:49;;;;;;;34.15;12.52;;;4.00;99.90;;;2.28;100.00;103783.78;5019664;28;20101;-77
2021/10/09 04:22:16;;;;;;;25.13;11.95;;;4.00;99.90;;;2.30;100.00;103788.19;5032103;28;20076;-77
2021/10/09 04:24:42;;;;;;;36.60;12.13;;;4.00;99.90;;;2.33;100.00;103793.50;5037733;28;20415;-77
2021/10/09 04:27:08;;;;;;;40.33;12.90;;;4.10;99.90;;;2.38;100.00;103798.91;5038086;28;20061;-77
2021/10/09 04:29:35;;;;;;;32.17;12.65;;;4.10;99.90;;;2.31;100.00;103790.00;5049230;28;20088;-77
2021/10/09 04:32:01;;;;;;;30.10;12.32;;;4.00;99.90;;;2.28;100.00;103787.25;5023945;28;20150;-77
2021/10/09 04:34:29;;;;;;;36.75;13.55;;;4.00;99.90;;;2.21;100.00;103786.16;5007654;28;20393;-78
2021/10/09 04:36:56;;;;;;;36.83;12.68;;;3.90;99.90;;;2.15;100.00;103785.03;5008427;28;20446;-77
2021/10/09 04:39:23;;;;;;;27.38;12.50;;;3.90;99.90;;;2.11;100.00;103777.94;4986509;28;20509;-77
2021/10/09 04:41:49;;;;;;;37.78;13.13;;;3.90;99.90;;;2.13;100.00;103787.56;5058375;28;20104;-77
2021/10/09 04:44:15;;;;;;;36.30;13.27;;;3.90;99.90;;;2.14;100.00;103807.56;5017848;28;20534;-77
2021/10/09 04:46:41;;;;;;;40.22;13.45;;;3.90;99.90;;;2.14;100.00;103807.56;5026802;28;20061;-77
2021/10/09 04:49:09;;;;;;;37.30;12.57;;;3.90;99.90;;;2.14;100.00;103807.56;5005596;28;20084;-77
2021/10/09 04:51:36;;;;;;;29.70;13.15;;;4.00;99.90;;;2.30;100.00;103831.53;5041688;28;20072;-77
2021/10/09 04:54:02;;;;;;;34.72;14.10;;;4.00;99.90;;;2.31;100.00;103829.00;5040349;28;20072;-77
2021/10/09 04:56:28;;;;;;;33.95;12.85;;;4.10;99.90;;;2.45;100.00;103832.97;5009850;28;20070;-77
2021/10/09 04:58:54;;;;;;;36.50;13.52;;;4.10;99.90;;;2.45;100.00;103829.50;4997912;28;20195;-77
2021/10/09 05:01:23;;;;;;;35.15;13.40;;;4.20;99.90;;;2.42;100.00;103826.78;5023313;28;20525;-77
2021/10/09 05:03:51;;;;;;;36.08;13.95;;;4.20;99.90;;;2.48;100.00;103814.00;5015704;28;23308;-77
2021/10/09 05:06:17;;;;;;;30.90;14.27;;;4.20;99.90;;;2.51;100.00;103815.84;5001961;28;20055;-77
2021/10/09 05:08:43;;;;;;;29.83;13.80;;;4.20;99.90;;;2.51;100.00;103832.31;4981596;28;20083;-77
2021/10/09 05:11:10;;;;;;;40.15;15.18;;;4.20;99.90;;;2.51;100.00;103821.03;4981353;28;20132;-77
2021/10/09 05:13:36;;;;;;;33.97;14.15;;;4.20;99.90;;;2.47;100.00;103804.44;5009739;28;20062;-77
2021/10/09 05:16:09;;;;;;;42.85;15.15;;;4.20;99.90;;;2.58;100.00;103799.63;4997339;28;20049;-77
2021/10/09 05:18:36;;;;;;;37.35;14.45;;;4.20;99.90;;;2.64;100.00;103784.22;5003795;28;20066;-77
2021/10/09 05:21:02;;;;;;;34.08;15.27;;;4.30;99.90;;;2.65;100.00;103776.44;5007487;28;20521;-77
2021/10/09 05:23:30;;;;;;;31.13;14.25;;;4.30;99.90;;;2.67;100.00;103772.19;4986471;28;20084;-77
2021/10/09 05:25:59;;;;;;;37.20;13.38;;;4.30;99.90;;;2.65;100.00;103757.38;4993337;28;20368;-77
2021/10/09 05:28:35;;;;;;;34.65;13.95;;;4.30;99.90;;;2.64;100.00;103756.47;4991822;28;20209;-77
2021/10/09 05:31:01;;;;;;;;;;;4.30;99.90;;;2.63;100.00;103744.28;5009704;28;20230;-78
2021/10/09 05:35:57;;;;;;;40.20;13.43;;;4.20;99.90;;;2.56;100.00;103734.50;5013279;28;20072;-78
2021/10/09 05:38:23;;;;;;;44.72;13.77;;;4.30;99.90;;;2.72;100.00;103755.84;4985258;28;20073;-77
2021/10/09 05:40:49;;;;;;;37.17;13.60;;;4.40;99.90;;;2.74;100.00;103741.19;4996578;28;20080;-77
2021/10/09 05:43:18;;;;;;;35.30;13.80;;;4.40;99.90;;;2.80;100.00;103737.06;4979189;28;20091;-78
2021/10/09 05:45:44;;;;;;;38.72;13.18;;;4.50;99.90;;;2.92;100.00;103736.63;5002723;28;20085;-78
2021/10/09 05:48:10;;;;;;;36.38;14.23;;;4.60;99.90;;;2.97;100.00;103729.81;4959199;28;20066;-77
2021/10/09 05:50:48;;;;;;;38.60;12.30;;;4.70;99.90;;;3.10;100.00;103730.25;5000884;28;20057;-78
2021/10/09 05:56:12;;;;;;;28.67;11.40;;;4.80;99.90;;;3.21;100.00;103728.84;5035049;28;20109;-78
2021/10/09 06:50:17;;;;;;;20.27;8.90;;;14.30;99.90;;;13.20;57.25;104284.56;5014899;28;20447;-80
2021/10/09 07:01:00;;;;;;;22.00;9.35;;;15.10;99.90;;;14.24;54.01;104304.56;5019045;28;20032;-80
2021/10/09 07:03:27;;;;;;;23.25;9.00;;;14.60;99.90;;;13.87;57.36;104268.50;4963073;28;20179;-80
2021/10/09 07:05:53;;;;;;;25.48;10.23;;;14.80;99.90;;;14.68;54.15;104351.19;4941592;28;20026;-79
2021/10/09 07:08:22;;;;;;;21.83;9.00;;;;;;;14.15;54.72;104279.00;4944115;28;20480;-80
2021/10/09 07:10:49;;;;;;;18.48;9.05;;;14.40;99.90;;;14.24;54.85;104272.75;5008548;28;20123;-79
2021/10/09 07:13:16;;;;;;;19.30;9.10;;;14.30;99.90;;;13.97;55.52;104237.53;5019383;28;20407;-79
2021/10/09 07:15:43;;;;;;;21.92;9.50;;;14.60;99.90;;;14.98;53.01;104366.88;4974582;28;20060;-80
2021/10/09 07:18:16;;;;;;;27.90;9.23;;;14.80;99.90;;;15.06;52.69;104328.81;5000181;28;20031;-79
2021/10/09 07:20:42;;;;;;;25.95;9.32;;;14.90;99.90;;;15.11;53.07;104321.69;4965943;28;20127;-79
2021/10/09 07:23:11;;;;;;;22.48;9.15;;;14.80;99.90;;;14.25;53.99;104185.25;4994490;28;20106;-80
2021/10/09 07:25:46;;;;;;;22.33;8.48;;;15.20;99.90;;;14.61;52.96;104223.03;4985942;28;20499;-80
2021/10/09 07:28:12;;;;;;;22.40;8.85;;;14.70;99.90;;;14.15;56.30;104210.97;4980856;28;20029;-80
2021/10/09 07:30:38;;;;;;;19.40;9.25;;;14.70;99.90;;;14.62;54.74;104261.03;4991474;28;20033;-79
2021/10/09 07:33:04;;;;;;;24.85;8.93;;;14.80;99.90;;;14.38;54.22;104203.72;4966137;28;20035;-80
2021/10/09 07:35:33;;;;;;;17.42;8.07;;;15.40;99.90;;;14.91;55.15;104261.69;4945044;28;20116;-79
2021/10/09 07:37:59;;;;;;;19.35;9.45;;;15.80;99.90;;;15.90;51.84;104345.72;4978719;28;20033;-79
2021/10/09 07:40:25;;;;;;;18.95;8.65;;;16.00;99.90;;;16.25;50.15;104360.38;4984577;28;20035;-79
2021/10/09 07:42:51;;;;;;;21.77;9.68;;;15.80;99.90;;;15.47;51.24;104237.25;4995114;28;20095;-78
2021/10/09 07:45:17;;;;;;;20.92;8.48;;;16.10;99.90;;;15.91;51.12;104267.75;4992415;28;20078;-79
2021/10/09 07:47:44;;;;;;;18.52;8.77;;;16.10;99.90;;;15.97;50.82;104283.63;4979639;28;20024;-79
2021/10/09 07:50:14;;;;;;;21.67;8.73;;;15.90;99.90;;;16.23;50.36;104293.03;4946587;28;20025;-79
2021/10/09 07:52:43;;;;;;;19.23;8.82;;;15.90;99.90;;;16.28;49.10;104269.91;4958269;28;20037;-80
2021/10/09 07:55:10;;;;;;;20.98;8.98;;;15.80;99.90;;;16.03;49.24;104226.84;4960964;28;20033;-80
2021/10/09 07:57:42;;;;;;;23.13;8.93;;;15.90;99.90;;;16.57;48.23;104301.41;4978548;28;20159;-81
2021/10/09 08:00:09;;;;;;;20.83;8.50;;;16.30;99.90;;;16.32;48.25;104235.25;4969909;28;20119;-81
2021/10/09 08:02:36;;;;;;;25.95;9.32;;;15.50;99.90;;;15.26;50.13;104167.56;4971258;28;20133;-81
2021/10/09 08:05:09;;;;;;;17.77;9.43;;;;;;;15.38;50.05;104178.03;4954921;28;20025;-80
2021/10/09 08:07:45;;;;;;;23.60;9.20;;;15.80;99.90;;;16.69;49.09;104306.50;4996255;28;20043;-80
2021/10/09 08:10:47;;;;;;;24.37;9.53;;;16.40;99.90;;;17.11;46.73;104305.88;4977982;28;20388;-80
2021/10/09 08:13:32;;;;;;;15.85;8.05;;;16.50;99.90;;;17.17;46.97;104292.44;4970364;28;20045;-80
2021/10/09 08:16:14;;;;;;;19.83;9.63;;;;;;;16.80;47.27;104198.16;4984400;28;20539;-80
2021/10/09 08:19:07;;;;;;;21.38;8.45;;;16.30;99.90;;;16.96;46.48;104297.25;4982488;28;20045;-80
2021/10/09 08:22:10;;;;;;;21.40;8.75;;;16.60;99.90;;;16.81;46.09;104220.31;4983407;28;20570;-80
2021/10/09 08:25:52;;;;;;;22.27;8.52;;;16.10;99.90;;;16.13;47.82;104136.31;4937786;28;20041;-80
2021/10/09 08:41:23;;;;;;;21.27;8.75;;;17.00;99.90;;;17.89;45.23;104263.56;4976174;28;20071;-82
2021/10/09 08:44:47;;;;;;;18.65;8.20;;;16.80;99.90;;;17.20;44.86;104154.78;4980402;28;20058;-81
2021/10/09 08:48:30;;;;;;;20.92;8.70;;;16.50;99.90;;;17.28;44.48;104154.66;4960537;28;20039;-81
2021/10/09 08:51:39;;;;;;;17.42;8.00;;;16.10;99.90;;;16.24;46.51;104034.19;4974925;28;20127;-82
2021/10/09 08:54:58;;;;;;;16.25;8.18;;;16.00;99.90;;;16.89;46.42;104130.56;4978217;28;20449;-81
2021/10/09 08:58:10;;;;;;;23.27;8.60;;;16.30;99.90;;;17.81;45.14;104211.22;4955313;28;20148;-81
2021/10/09 09:01:42;;;;;;;21.98;7.50;;;17.10;99.90;;;19.08;42.45;104331.06;4974688;28;20397;-81
2021/10/09 09:04:38;;;;;;;17.23;7.70;;;17.20;99.90;;;17.94;44.16;104134.53;4926396;28;20099;-81
2021/10/09 09:41:04;;;;;;;15.55;7.63;;;14.30;99.90;;;12.57;58.81;103664.19;4992366;28;20059;-80
2021/10/09 09:44:25;;;;;;;19.58;7.53;;;13.60;99.90;;;12.05;60.98;103918.09;4978589;28;20093;-81
2021/10/09 09:47:56;;;;;;;14.77;7.28;;;13.50;99.90;;;12.37;62.82;103948.84;4947886;28;20108;-80
2021/10/09 09:51:29;;;;;;;20.67;8.45;;;13.40;99.90;;;12.40;63.57;103951.50;4953760;28;20045;-81
2021/10/09 09:54:52;;;;;;;20.02;7.13;;;13.50;99.90;;;12.58;62.31;103940.84;4969685;28;20024;-81
2021/10/09 09:58:23;;;;;;;24.23;7.80;;;13.70;99.90;;;12.86;60.44;103912.50;4979242;28;20040;-81
2021/10/09 10:01:50;;;;;;;18.67;6.90;;;13.70;99.90;;;12.61;59.98;104000.75;4977158;28;20158;-81
2021/10/09 10:04:59;;;;;;;15.63;6.63;;;13.70;99.90;;;12.45;59.12;104935.63;4971222;28;20235;-80
2021/10/09 10:08:32;;;;;;;18.33;6.28;;;13.40;99.90;;;12.57;60.50;104593.81;4961612;28;20036;-81
2021/10/09 10:11:55;;;;;;;14.40;7.30;;;13.50;99.90;;;12.31;60.26;104105.66;4960762;28;20037;-81
2021/10/09 10:15:10;;;;;;;13.98;6.72;;;13.50;99.90;;;12.47;61.00;104014.03;4979787;28;20801;-81
2021/10/09 10:18:58;;;;;;;14.25;6.10;;;13.50;99.90;;;12.47;60.06;104001.69;4968054;28;20033;-81
2021/10/09 10:22:51;;;;;;;15.93;5.45;;;13.60;99.90;;;12.21;55.25;103945.38;5000637;28;20080;-80
2021/10/09 10:26:55;;;;;;;15.38;4.90;;;13.40;99.90;;;12.29;54.70;103959.47;4984255;28;20063;-80
2021/10/09 10:30:49;;;;;;;12.10;5.28;;;13.30;99.90;;;12.13;56.59;103941.88;4891676;28;20125;-80
2021/10/09 10:34:36;;;;;;;10.73;4.55;;;13.20;99.90;;;12.02;56.64;103933.97;4889929;28;20136;-79
2021/10/09 10:38:44;;;;;;;10.82;5.00;;;13.20;99.90;;;11.83;55.14;103907.53;4872854;28;20731;-79
2021/10/09 10:42:41;;;;;;;11.02;4.60;;;13.20;99.90;;;12.00;56.35;103920.75;4856071;28;20039;-80
2021/10/09 10:46:41;;;;;;;13.32;4.80;;;13.10;99.90;;;11.75;56.91;103882.03;4878436;28;20061;-80
2021/10/09 10:51:04;;;;;;;21.73;5.35;;;13.00;99.90;;;11.68;58.90;103881.16;4878962;28;20027;-80
2021/10/09 10:55:05;;;;;;;16.95;5.53;;;12.90;99.90;;;11.60;59.32;103853.91;4862501;28;20520;-80
2021/10/09 10:58:53;;;;;;;11.68;4.82;;;12.90;99.90;;;11.59;57.70;103838.94;4867785;28;20126;-80
2021/10/09 11:02:39;;;;;;;12.55;4.90;;;12.90;99.90;;;11.72;57.53;103858.28;4893530;28;20100;-80
2021/10/09 11:06:08;;;;;;;14.32;4.45;;;12.90;99.90;;;11.60;58.43;103822.25;4946535;28;20041;-80
2021/10/09 11:09:43;;;;;;;13.98;4.60;;;12.90;99.90;;;11.85;57.46;103845.03;4969781;28;20063;-80
2021/10/09 11:13:33;;;;;;;15.70;5.20;;;13.10;99.90;;;11.71;55.03;103817.81;4987087;28;20070;-80
2021/10/09 11:17:17;;;;;;;12.73;4.13;;;13.00;99.90;;;11.67;54.92;103806.38;4971352;28;20192;-80
2021/10/09 11:19:53;;;;;;;10.25;4.40;;;12.90;99.90;;;11.59;55.90;103797.59;5006364;28;20062;-83
2021/10/09 11:22:54;;;;;;;13.27;4.45;;;12.90;99.90;;;11.69;55.61;103811.66;4946734;28;20044;-79
2021/10/09 11:25:48;;;;;;;12.52;4.80;;;12.90;99.90;;;11.65;55.92;103802.84;4931886;28;20168;-79
2021/10/09 11:32:45;;;;;;;11.93;5.00;;;12.80;99.90;;;11.52;56.10;103793.22;4996873;28;20222;-79
2021/10/09 11:35:54;;;;;;;11.52;4.53;;;12.80;99.90;;;11.58;56.16;103792.31;4993998;28;20351;-79
2021/10/09 11:38:48;;;;;;;9.88;4.75;;;12.90;99.90;;;11.61;57.18;103785.25;4991176;28;20047;-80
2021/10/09 11:41:28;;;;;;;12.30;4.60;;;13.00;99.90;;;11.80;58.87;103798.44;4977616;28;20070;-80
2021/10/09 11:44:31;;;;;;;14.35;4.53;;;13.10;99.90;;;11.84;55.69;103776.41;4943078;28;20076;-80
2021/10/09 11:56:08;;;;;;;10.70;5.20;;;13.10;99.90;;;11.83;59.11;103745.59;5021718;28;20031;-80
2021/10/09 11:58:52;;;;;;;10.43;4.47;;;13.20;99.90;;;11.85;56.46;103728.88;4990046;28;20543;-79
2021/10/09 12:01:40;;;;;;;7.45;4.22;;;13.10;99.90;;;11.89;55.09;103728.00;4999069;28;20418;-78
2021/10/09 12:04:21;;;;;;;9.27;4.65;;;13.20;99.90;;;11.89;57.03;103728.00;4979497;28;20068;-78
2021/10/09 12:06:54;;;;;;;12.38;4.32;;;13.20;99.90;;;11.95;57.59;103736.81;4983278;28;20035;-78
2021/10/09 12:10:01;;;;;;;10.02;4.60;;;13.30;99.90;;;12.05;56.97;103731.47;5008001;28;20136;-79
2021/10/09 12:12:33;;;;;;;14.43;4.10;;;13.40;99.90;;;12.19;55.09;103719.94;4919787;28;20025;-78
2021/10/09 12:15:00;;;;;;;11.38;3.90;;;13.40;99.90;;;12.20;55.55;103722.59;4998880;28;20078;-79
2021/10/09 12:17:38;;;;;;;16.45;4.43;;;13.50;99.90;;;12.22;54.31;103709.34;4991682;28;20049;-78
2021/10/09 12:20:09;;;;;;;9.13;4.13;;;13.50;99.90;;;12.25;54.18;103714.63;5009440;28;20030;-78
2021/10/09 12:22:48;;;;;;;11.07;4.18;;;13.50;99.90;;;12.17;56.05;103693.53;5021440;28;20041;-79
2021/10/09 12:25:26;;;;;;;12.40;3.80;;;13.50;99.90;;;12.27;57.00;103708.44;4990024;28;20055;-80
2021/10/09 12:28:03;;;;;;;8.43;4.25;;;13.60;99.90;;;12.34;52.92;103692.56;4993578;28;20024;-79
2021/10/09 12:30:44;;;;;;;7.90;3.60;;;13.60;99.90;;;12.28;54.16;103683.78;4946232;28;20045;-79
2021/10/09 12:33:10;;;;;;;8.93;3.15;;;13.60;99.90;;;12.30;54.72;103686.41;4975147;28;20029;-79
2021/10/09 12:35:38;;;;;;;6.63;3.42;;;13.60;99.90;;;12.31;54.09;103677.63;4975592;28;20026;-79
2021/10/09 12:38:09;;;;;;;8.40;3.42;;;13.60;99.90;;;12.38;54.02;103678.44;4972110;28;20040;-79
2021/10/09 12:40:40;;;;;;;13.90;2.97;;;13.70;99.90;;;12.41;52.70;103671.34;4970203;28;20079;-79
2021/10/09 12:43:10;;;;;;;10.82;3.63;;;13.70;99.90;;;12.35;52.21;103660.81;4945634;28;20062;-79
2021/10/09 12:45:41;;;;;;;9.07;3.03;;;13.60;99.90;;;12.32;51.60;103653.81;4969018;28;20037;-79
2021/10/09 12:48:07;;;;;;;5.97;2.55;;;13.60;99.90;;;12.35;53.44;103650.25;4937734;28;20183;-80
2021/10/09 12:50:37;;;;;;;6.65;3.20;;;13.70;99.90;;;12.40;52.97;103644.97;4957194;28;20462;-80
2021/10/09 12:53:08;;;;;;;11.98;3.45;;;13.70;99.90;;;12.44;52.40;103637.00;4972522;28;20116;-80
2021/10/09 12:55:36;;;;;;;6.88;2.60;;;13.70;99.90;;;12.50;53.10;103641.34;5005648;28;20076;-79
2021/10/09 12:58:09;;;;;;;5.57;3.28;;;13.70;99.90;;;12.58;52.46;103652.72;5008578;28;20025;-79
2021/10/09 13:00:39;;;;;;;10.48;3.53;;;13.80;99.90;;;12.60;53.86;103637.72;4939622;28;20440;-80
2021/10/09 13:03:05;;;;;;;8.63;3.50;;;13.90;99.90;;;12.55;51.27;103625.44;4964043;28;20046;-79
2021/10/09 13:05:32;;;;;;;6.82;3.08;;;13.80;99.90;;;12.57;52.62;103629.84;4973327;28;20055;-79
2021/10/09 13:08:00;;;;;;;6.80;3.53;;;13.90;99.90;;;12.72;51.58;103642.00;4973811;28;20026;-80
2021/10/09 13:10:32;;;;;;;6.82;2.75;;;13.90;99.90;;;12.67;51.06;103627.97;4987189;28;20028;-79
2021/10/09 13:12:58;;;;;;;6.30;3.17;;;13.90;99.90;;;12.64;51.65;103614.81;4972857;28;20412;-79
2021/10/09 13:15:24;;;;;;;6.57;2.72;;;13.90;99.90;;;12.67;52.06;103615.63;4982743;28;20101;-79